Time;durP1;ratioP1;P1;durP2;ratioP2;P2;SDS_P1;SDS_P2;PMS_P1;PMS_P2;Temp;Humidity;BMP_temperature;BMP_pressure;BME280_temperature;BME280_humidity;BME280_pressure;Samples;Min_cycle;Max_cycle;Signal;HPM_P1;HPM_P2
2022/02/16 00:01:29;;;;;;;56.75;30.40;;;;;;;;;;5044688;28;20044;-86
2022/02/16 00:03:55;;;;;;;38.38;22.08;;;;;;;;;;5049488;28;20035;-86
2022/02/16 00:06:21;;;;;;;38.50;22.38;;;;;;;;;;5049591;28;20021;-84
2022/02/16 00:08:47;;;;;;;34.22;23.02;;;;;;;;;;5050195;28;20039;-86
2022/02/16 00:11:13;;;;;;;48.60;27.10;;;;;;;;;;5041899;28;20143;-84
2022/02/16 00:13:39;;;;;;;36.45;24.17;;;;;;;;;;5051139;28;20430;-84
2022/02/16 00:16:08;;;;;;;35.08;22.45;;;;;;;;;;5051904;28;20024;-82
2022/02/16 00:18:38;;;;;;;36.42;21.58;;;;;;;;;;5049207;28;20803;-83
2022/02/16 00:21:04;;;;;;;34.63;22.52;;;;;;;;;;5046381;28;20434;-82
2022/02/16 00:23:31;;;;;;;31.08;21.42;;;;;;;;;;5046881;28;20029;-81
2022/02/16 00:25:59;;;;;;;31.00;20.30;;;;;;;;;;5049677;28;20021;-84
2022/02/16 00:28:26;;;;;;;32.97;20.48;;;;;;;;;;5037462;28;20017;-82
2022/02/16 00:30:52;;;;;;;28.30;19.33;;;;;;;;;;5047700;28;20053;-81
2022/02/16 00:33:18;;;;;;;36.47;23.60;;;;;;;;;;5052992;28;20032;-81
2022/02/16 00:35:44;;;;;;;32.40;21.20;;;;;;;;;;5042722;28;20488;-80
2022/02/16 00:38:10;;;;;;;34.97;22.92;;;;;;;;;;5051293;28;20476;-79
2022/02/16 00:40:36;;;;;;;33.70;21.55;;;;;;;;;;5048928;28;20017;-81
2022/02/16 00:43:02;;;;;;;33.28;23.30;;;;;;;;;;5041244;28;20553;-80
2022/02/16 00:45:31;;;;;;;41.70;27.98;;;;;;;;;;5035491;28;20021;-80
2022/02/16 00:47:57;;;;;;;52.63;34.70;;;;;;;;;;5049707;28;20029;-79
2022/02/16 00:50:23;;;;;;;52.28;36.05;;;;;;;;;;5052034;28;20055;-79
2022/02/16 00:52:49;;;;;;;40.53;26.35;;;;;;;;;;5032243;28;20034;-79
2022/02/16 00:55:15;;;;;;;45.90;30.55;;;;;;;;;;5051001;28;20499;-79
2022/02/16 00:57:41;;;;;;;59.53;38.08;;;;;;;;;;5050277;28;20503;-79
2022/02/16 01:00:07;;;;;;;47.05;29.08;;;;;;;;;;5050605;28;20041;-80
2022/02/16 01:02:33;;;;;;;36.08;21.52;;;;;;;;;;5050440;28;20510;-79
2022/02/16 01:04:59;;;;;;;38.17;22.35;;;;;;;;;;5047314;28;20053;-80
2022/02/16 01:07:25;;;;;;;39.00;25.52;;;;;;;;;;5049533;28;21598;-81
2022/02/16 01:09:51;;;;;;;51.30;33.35;;;;;;;;;;5032275;28;20029;-81
2022/02/16 01:12:17;;;;;;;45.03;31.98;;;;;;;;;;5039151;28;20079;-81
2022/02/16 01:14:43;;;;;;;39.78;26.33;;;;;;;;;;5048982;28;20025;-80
2022/02/16 01:17:10;;;;;;;35.72;26.73;;;;;;;;;;5035882;28;20025;-80
2022/02/16 01:19:36;;;;;;;38.58;26.85;;;;;;;;;;5040295;28;20025;-80
2022/02/16 01:22:02;;;;;;;37.25;24.98;;;;;;;;;;5048488;28;20028;-79
2022/02/16 01:24:29;;;;;;;33.13;23.20;;;;;;;;;;5042916;28;20017;-79
2022/02/16 01:26:55;;;;;;;41.05;30.13;;;;;;;;;;5049045;28;20024;-81
2022/02/16 01:29:23;;;;;;;32.22;23.17;;;;;;;;;;5035412;28;20029;-81
2022/02/16 01:31:49;;;;;;;32.15;21.83;;;;;;;;;;5046503;28;20028;-80
2022/02/16 01:34:15;;;;;;;30.48;20.25;;;;;;;;;;5050700;28;20028;-82
2022/02/16 01:36:41;;;;;;;26.00;17.83;;;;;;;;;;5054342;28;20031;-82
2022/02/16 01:39:08;;;;;;;29.77;19.05;;;;;;;;;;5047947;28;20021;-78
2022/02/16 01:41:34;;;;;;;29.02;19.23;;;;;;;;;;5052337;28;20021;-81
2022/02/16 01:44:01;;;;;;;29.55;20.45;;;;;;;;;;5051987;28;20092;-80
2022/02/16 01:46:27;;;;;;;25.67;18.05;;;;;;;;;;5050509;28;20017;-80
2022/02/16 01:48:53;;;;;;;26.10;17.20;;;;;;;;;;5049334;28;20025;-80
2022/02/16 01:51:19;;;;;;;25.95;16.65;;;;;;;;;;5050184;28;20068;-79
2022/02/16 01:53:45;;;;;;;23.08;15.70;;;;;;;;;;5045358;28;20025;-79
2022/02/16 01:56:12;;;;;;;27.92;17.83;;;;;;;;;;5050320;28;20025;-80
2022/02/16 01:58:39;;;;;;;22.38;14.27;;;;;;;;;;5045556;28;20088;-79
2022/02/16 02:01:05;;;;;;;26.13;17.95;;;;;;;;;;5049394;28;20049;-78
2022/02/16 02:03:32;;;;;;;25.98;17.92;;;;;;;;;;5041962;28;20032;-79
2022/02/16 02:05:58;;;;;;;24.48;17.00;;;;;;;;;;5050016;28;20039;-80
2022/02/16 02:08:24;;;;;;;26.02;17.75;;;;;;;;;;5038182;28;20079;-80
2022/02/16 02:10:56;;;;;;;28.30;18.58;;;;;;;;;;5052244;28;20464;-79
2022/02/16 02:13:22;;;;;;;23.70;18.95;;;;;;;;;;5050770;28;20017;-79
2022/02/16 02:15:48;;;;;;;26.83;20.70;;;;;;;;;;5054907;28;20017;-79
2022/02/16 02:18:18;;;;;;;29.90;20.98;;;;;;;;;;5051679;28;20021;-79
2022/02/16 02:20:44;;;;;;;27.40;19.70;;;;;;;;;;5083168;28;20491;-77
2022/02/16 02:23:11;;;;;;;31.17;20.33;;;;;;;;;;5050274;28;20563;-78
2022/02/16 02:25:48;;;;;;;31.77;22.15;;;;;;;;;;5051457;28;20475;-77
2022/02/16 02:28:14;;;;;;;30.90;20.83;;;;;;;;;;5053316;28;20064;-79
2022/02/16 02:30:40;;;;;;;30.35;15.65;;;;;;;;;;5052547;28;20044;-79
2022/02/16 02:33:06;;;;;;;25.92;18.98;;;;;;;;;;5051462;28;20062;-80
2022/02/16 02:35:32;;;;;;;24.98;18.77;;;;;;;;;;5054001;28;20354;-79
2022/02/16 02:37:58;;;;;;;29.35;18.90;;;;;;;;;;5052817;28;20025;-79
2022/02/16 02:40:24;;;;;;;21.48;13.43;;;;;;;;;;5055096;28;20024;-79
2022/02/16 02:42:50;;;;;;;17.15;13.18;;;;;;;;;;5052717;28;20028;-80
2022/02/16 02:45:16;;;;;;;20.60;12.77;;;;;;;;;;5052470;28;20032;-80
2022/02/16 02:47:43;;;;;;;22.17;16.63;;;;;;;;;;5053409;28;20476;-81
2022/02/16 02:50:09;;;;;;;25.73;18.35;;;;;;;;;;5053672;28;20016;-82
2022/02/16 02:52:36;;;;;;;22.13;15.25;;;;;;;;;;5052333;28;20086;-80
2022/02/16 02:55:03;;;;;;;23.30;16.67;;;;;;;;;;5052282;28;20017;-78
2022/02/16 02:57:29;;;;;;;23.55;16.40;;;;;;;;;;5052603;28;20040;-79
2022/02/16 02:59:55;;;;;;;27.40;16.15;;;;;;;;;;5052074;28;20049;-79
2022/02/16 03:02:23;;;;;;;20.48;14.57;;;;;;;;;;5053358;28;20025;-78
2022/02/16 03:04:49;;;;;;;23.42;16.20;;;;;;;;;;5052095;28;20024;-79
2022/02/16 03:07:15;;;;;;;26.27;18.52;;;;;;;;;;5053516;28;20017;-78
2022/02/16 03:09:42;;;;;;;23.90;17.92;;;;;;;;;;5052254;28;20502;-78
2022/02/16 03:12:08;;;;;;;26.13;20.02;;;;;;;;;;5053767;28;20040;-78
2022/02/16 03:14:37;;;;;;;21.30;14.98;;;;;;;;;;5052297;28;20028;-78
2022/02/16 03:17:04;;;;;;;21.60;15.20;;;;;;;;;;5053708;28;20017;-79
2022/02/16 03:19:30;;;;;;;27.42;17.38;;;;;;;;;;5052264;28;20139;-79
2022/02/16 03:21:56;;;;;;;24.90;17.73;;;;;;;;;;5048045;28;20017;-79
2022/02/16 03:24:22;;;;;;;26.88;17.33;;;;;;;;;;5052329;28;20131;-78
2022/02/16 03:26:48;;;;;;;22.75;18.15;;;;;;;;;;5052073;28;21262;-78
2022/02/16 03:29:14;;;;;;;27.30;18.42;;;;;;;;;;5053370;28;20379;-79
2022/02/16 03:31:42;;;;;;;25.15;17.98;;;;;;;;;;5052731;28;20029;-77
2022/02/16 03:34:08;;;;;;;31.38;22.25;;;;;;;;;;5053403;28;20050;-77
2022/02/16 03:36:34;;;;;;;38.88;25.75;;;;;;;;;;5051965;28;20045;-77
2022/02/16 03:39:01;;;;;;;29.15;17.63;;;;;;;;;;5052953;28;20090;-78
2022/02/16 03:41:27;;;;;;;28.10;19.33;;;;;;;;;;5052946;28;20017;-81
2022/02/16 03:43:53;;;;;;;26.42;18.42;;;;;;;;;;5053632;28;20013;-80
2022/02/16 03:46:19;;;;;;;26.77;17.38;;;;;;;;;;5053349;28;20017;-79
2022/02/16 03:48:45;;;;;;;27.48;18.90;;;;;;;;;;5051790;28;20057;-78
2022/02/16 03:51:11;;;;;;;24.00;17.67;;;;;;;;;;5044223;28;20415;-78
2022/02/16 03:53:37;;;;;;;25.85;16.13;;;;;;;;;;5046756;28;20074;-79
2022/02/16 03:56:03;;;;;;;24.17;16.48;;;;;;;;;;5052527;28;20476;-79
2022/02/16 03:58:29;;;;;;;28.45;18.85;;;;;;;;;;5051031;28;20462;-80
2022/02/16 04:00:55;;;;;;;26.80;20.20;;;;;;;;;;5052399;28;20048;-78
2022/02/16 04:03:21;;;;;;;26.85;18.42;;;;;;;;;;5051383;28;20116;-79
2022/02/16 04:05:47;;;;;;;32.17;21.35;;;;;;;;;;5052562;28;20419;-78
2022/02/16 04:08:13;;;;;;;32.20;19.88;;;;;;;;;;5052503;28;20485;-79
2022/02/16 04:10:40;;;;;;;33.25;22.80;;;;;;;;;;5052436;28;20514;-79
2022/02/16 04:13:06;;;;;;;30.00;16.95;;;;;;;;;;5037442;28;20014;-79
2022/02/16 04:15:33;;;;;;;26.33;18.70;;;;;;;;;;5051082;28;20029;-78
2022/02/16 04:18:00;;;;;;;29.00;19.63;;;;;;;;;;5037199;28;20013;-80
2022/02/16 04:20:26;;;;;;;36.17;24.20;;;;;;;;;;5052446;28;20048;-78
2022/02/16 04:22:53;;;;;;;27.27;20.20;;;;;;;;;;5050858;28;20021;-78
2022/02/16 04:25:19;;;;;;;30.25;19.92;;;;;;;;;;5050877;28;20021;-78
2022/02/16 04:27:46;;;;;;;29.10;19.27;;;;;;;;;;5037458;28;20018;-77
2022/02/16 04:30:12;;;;;;;29.35;19.35;;;;;;;;;;5050673;28;20019;-77
2022/02/16 04:32:38;;;;;;;32.28;20.75;;;;;;;;;;5051327;28;20044;-79
2022/02/16 04:35:05;;;;;;;33.67;22.15;;;;;;;;;;5051790;28;20027;-77
2022/02/16 04:37:31;;;;;;;30.83;22.77;;;;;;;;;;5050809;28;20040;-77
2022/02/16 04:39:58;;;;;;;31.02;21.55;;;;;;;;;;5050699;28;20017;-78
2022/02/16 04:42:24;;;;;;;29.88;21.13;;;;;;;;;;5050787;28;20379;-78
2022/02/16 04:44:50;;;;;;;31.60;22.45;;;;;;;;;;5038524;28;20048;-78
2022/02/16 04:47:17;;;;;;;34.00;22.73;;;;;;;;;;5050978;28;20066;-77
2022/02/16 04:49:43;;;;;;;32.60;22.10;;;;;;;;;;5052332;28;20112;-78
2022/02/16 04:52:09;;;;;;;31.17;23.02;;;;;;;;;;5050502;28;20028;-79
2022/02/16 04:54:36;;;;;;;30.80;21.95;;;;;;;;;;5052105;28;20025;-78
2022/02/16 04:57:02;;;;;;;36.05;24.40;;;;;;;;;;5032981;28;20017;-77
2022/02/16 04:59:28;;;;;;;33.92;21.65;;;;;;;;;;5031549;28;20060;-78
2022/02/16 05:01:55;;;;;;;30.65;21.67;;;;;;;;;;5050235;28;20045;-78
2022/02/16 05:04:21;;;;;;;31.92;24.40;;;;;;;;;;5050426;28;20067;-81
2022/02/16 05:06:47;;;;;;;30.33;22.67;;;;;;;;;;5041213;28;20022;-82
2022/02/16 05:09:13;;;;;;;30.38;22.98;;;;;;;;;;5045984;28;20048;-81
2022/02/16 05:11:39;;;;;;;31.95;23.58;;;;;;;;;;5050159;28;20037;-77
2022/02/16 05:14:06;;;;;;;35.47;25.88;;;;;;;;;;5050123;28;20361;-78
2022/02/16 05:16:32;;;;;;;32.70;23.23;;;;;;;;;;5051794;28;20068;-77
2022/02/16 05:18:59;;;;;;;34.63;27.63;;;;;;;;;;5050501;28;20104;-79
2022/02/16 05:21:25;;;;;;;36.78;25.75;;;;;;;;;;5050474;28;20433;-79
2022/02/16 05:23:51;;;;;;;31.27;23.85;;;;;;;;;;5051968;28;20107;-79
2022/02/16 05:26:18;;;;;;;31.98;25.00;;;;;;;;;;5050310;28;20056;-79
2022/02/16 05:28:44;;;;;;;36.63;27.60;;;;;;;;;;5041806;28;20026;-78
2022/02/16 05:31:10;;;;;;;41.78;28.55;;;;;;;;;;5050317;28;20111;-77
2022/02/16 05:33:38;;;;;;;41.85;29.85;;;;;;;;;;5050358;28;20479;-78
2022/02/16 05:36:05;;;;;;;34.42;23.73;;;;;;;;;;5050320;28;20044;-78
2022/02/16 05:38:31;;;;;;;44.75;30.77;;;;;;;;;;5046122;28;20013;-76
2022/02/16 05:40:57;;;;;;;55.65;39.50;;;;;;;;;;5042762;28;20025;-77
2022/02/16 05:43:23;;;;;;;65.18;47.47;;;;;;;;;;5049808;28;20017;-77
2022/02/16 05:45:49;;;;;;;51.90;39.65;;;;;;;;;;5055259;28;20029;-76
2022/02/16 05:48:20;;;;;;;66.28;51.35;;;;;;;;;;5041974;28;20029;-77
2022/02/16 05:50:47;;;;;;;64.95;48.22;;;;;;;;;;5045748;28;20029;-77
2022/02/16 05:53:14;;;;;;;74.75;53.95;;;;;;;;;;5053792;28;20032;-77
2022/02/16 05:55:40;;;;;;;68.40;49.08;;;;;;;;;;5055308;28;20499;-77
2022/02/16 05:58:06;;;;;;;53.55;38.22;;;;;;;;;;5054017;28;20040;-77
2022/02/16 06:00:32;;;;;;;49.92;37.40;;;;;;;;;;5054746;28;20037;-77
2022/02/16 06:02:58;;;;;;;41.75;31.35;;;;;;;;;;5053185;28;20032;-80
2022/02/16 06:05:24;;;;;;;36.17;26.85;;;;;;;;;;5054898;28;20032;-78
2022/02/16 06:07:50;;;;;;;39.20;29.63;;;;;;;;;;5039679;28;20388;-78
2022/02/16 06:10:16;;;;;;;34.97;26.10;;;;;;;;;;5043109;28;20028;-78
2022/02/16 06:12:42;;;;;;;38.38;28.05;;;;;;;;;;5051385;28;20112;-78
2022/02/16 06:15:09;;;;;;;59.08;46.00;;;;;;;;;;5053345;28;20476;-78
2022/02/16 06:17:35;;;;;;;45.67;35.50;;;;;;;;;;5054652;28;20025;-77
2022/02/16 06:20:01;;;;;;;44.00;34.65;;;;;;;;;;5054411;28;20024;-77
2022/02/16 06:22:27;;;;;;;42.20;31.42;;;;;;;;;;5053303;28;20118;-78
2022/02/16 06:24:53;;;;;;;43.47;31.23;;;;;;;;;;5048383;28;20427;-78
2022/02/16 06:27:20;;;;;;;55.67;40.40;;;;;;;;;;5034774;28;20375;-78
2022/02/16 06:29:46;;;;;;;92.75;68.13;;;;;;;;;;5053560;28;20080;-79
2022/02/16 06:32:13;;;;;;;133.70;95.30;;;;;;;;;;5053169;28;20102;-80
2022/02/16 06:34:39;;;;;;;144.18;108.47;;;;;;;;;;5053004;28;20027;-77
2022/02/16 06:37:05;;;;;;;62.88;49.72;;;;;;;;;;5054401;28;20028;-77
2022/02/16 06:39:31;;;;;;;108.32;80.22;;;;;;;;;;5054666;28;20021;-77
2022/02/16 06:41:57;;;;;;;96.30;73.72;;;;;;;;;;5054189;28;20017;-77
2022/02/16 06:44:23;;;;;;;66.53;48.63;;;;;;;;;;5053969;28;20067;-78
2022/02/16 06:46:49;;;;;;;47.15;33.10;;;;;;;;;;5054074;28;20017;-77
2022/02/16 06:49:15;;;;;;;43.55;29.83;;;;;;;;;;5052832;28;20364;-77
2022/02/16 06:51:44;;;;;;;36.35;25.50;;;;;;;;;;5054085;28;20076;-77
2022/02/16 06:54:10;;;;;;;43.05;31.42;;;;;;;;;;5052773;28;20541;-77
2022/02/16 06:56:37;;;;;;;51.65;38.33;;;;;;;;;;5052666;28;20067;-78
2022/02/16 06:59:03;;;;;;;52.50;39.95;;;;;;;;;;5054083;28;20021;-77
2022/02/16 07:01:29;;;;;;;65.47;43.47;;;;;;;;;;5053368;28;20119;-77
2022/02/16 07:03:55;;;;;;;50.25;35.88;;;;;;;;;;5053591;28;20021;-78
2022/02/16 07:06:21;;;;;;;53.45;37.63;;;;;;;;;;5053801;28;20088;-78
2022/02/16 07:08:47;;;;;;;45.22;27.73;;;;;;;;;;5054066;28;20083;-79
2022/02/16 07:11:13;;;;;;;47.75;32.53;;;;;;;;;;5049153;28;20041;-78
2022/02/16 07:13:39;;;;;;;52.50;34.15;;;;;;;;;;5052582;28;20021;-78
2022/02/16 07:16:05;;;;;;;49.13;33.47;;;;;;;;;;5053561;28;20022;-79
2022/02/16 07:18:33;;;;;;;63.03;41.50;;;;;;;;;;5052459;28;20017;-79
2022/02/16 07:21:00;;;;;;;63.90;44.05;;;;;;;;;;5052504;28;20083;-78
2022/02/16 07:23:26;;;;;;;82.95;55.00;;;;;;;;;;5052229;28;20380;-79
2022/02/16 07:25:52;;;;;;;85.13;57.42;;;;;;;;;;5053267;28;20013;-78
2022/02/16 07:28:18;;;;;;;66.47;48.25;;;;;;;;;;5052159;28;20013;-78
2022/02/16 07:30:45;;;;;;;86.18;57.83;;;;;;;;;;5052109;28;20080;-78
2022/02/16 07:33:12;;;;;;;97.68;64.30;;;;;;;;;;5048698;28;20017;-78
2022/02/16 07:35:39;;;;;;;83.90;52.05;;;;;;;;;;5052118;28;20040;-78
2022/02/16 07:38:05;;;;;;;71.03;46.03;;;;;;;;;;5053343;28;20494;-78
2022/02/16 07:40:31;;;;;;;70.90;47.72;;;;;;;;;;5053356;28;20029;-78
2022/02/16 07:42:57;;;;;;;68.00;48.90;;;;;;;;;;5051855;28;20071;-79
2022/02/16 07:45:23;;;;;;;64.50;48.90;;;;;;;;;;5052899;28;20092;-79
2022/02/16 07:47:49;;;;;;;56.28;40.67;;;;;;;;;;5051828;28;20025;-78
2022/02/16 07:50:15;;;;;;;72.88;47.25;;;;;;;;;;5051513;28;20021;-79
2022/02/16 07:52:42;;;;;;;60.55;44.67;;;;;;;;;;5054250;28;20098;-79
2022/02/16 07:55:08;;;;;;;74.25;47.20;;;;;;;;;;5052982;28;20434;-80
2022/02/16 07:57:34;;;;;;;61.88;41.85;;;;;;;;;;5053290;28;20017;-80
2022/02/16 08:00:00;;;;;;;74.13;54.08;;;;;;;;;;5048781;28;20075;-82
2022/02/16 08:02:26;;;;;;;78.55;56.60;;;;;;;;;;5052539;28;20021;-81
2022/02/16 08:04:52;;;;;;;96.18;70.75;;;;;;;;;;5048738;28;20032;-79
2022/02/16 08:07:19;;;;;;;114.05;79.95;;;;;;;;;;5049686;28;20044;-77
2022/02/16 08:09:45;;;;;;;90.55;62.58;;;;;;;;;;5050674;28;20033;-78
2022/02/16 08:12:12;;;;;;;87.15;63.58;;;;;;;;;;5051596;28;20033;-77
2022/02/16 08:14:38;;;;;;;94.90;63.88;;;;;;;;;;5052207;28;20021;-77
2022/02/16 08:17:04;;;;;;;89.05;66.70;;;;;;;;;;5051737;28;20135;-78
2022/02/16 08:19:31;;;;;;;87.57;65.97;;;;;;;;;;5047191;28;20476;-82
2022/02/16 08:21:58;;;;;;;68.45;51.90;;;;;;;;;;5044748;28;20028;-79
2022/02/16 08:24:25;;;;;;;74.35;56.78;;;;;;;;;;5049984;28;20021;-80
2022/02/16 08:26:52;;;;;;;81.85;60.92;;;;;;;;;;5052141;28;20114;-78
2022/02/16 08:29:18;;;;;;;59.97;47.38;;;;;;;;;;5050131;28;20021;-77
2022/02/16 08:31:45;;;;;;;59.63;47.55;;;;;;;;;;5050870;28;20072;-77
2022/02/16 08:34:11;;;;;;;82.68;60.08;;;;;;;;;;5050872;28;20013;-77
2022/02/16 08:36:37;;;;;;;64.80;50.45;;;;;;;;;;5052110;28;20017;-76
2022/02/16 08:39:04;;;;;;;78.55;58.05;;;;;;;;;;5051885;28;20108;-77
2022/02/16 08:41:30;;;;;;;69.03;54.40;;;;;;;;;;5050685;28;20025;-77
2022/02/16 08:43:56;;;;;;;93.03;64.93;;;;;;;;;;5051475;28;20103;-76
2022/02/16 08:46:22;;;;;;;69.65;55.13;;;;;;;;;;5050510;28;20545;-76
2022/02/16 08:48:48;;;;;;;72.13;55.15;;;;;;;;;;5052132;28;20055;-78
2022/02/16 08:51:14;;;;;;;72.78;57.22;;;;;;;;;;5051550;28;20079;-77
2022/02/16 08:53:40;;;;;;;77.68;60.15;;;;;;;;;;5051806;28;20476;-76
2022/02/16 08:56:06;;;;;;;68.38;58.50;;;;;;;;;;5039582;28;20032;-76
2022/02/16 08:58:33;;;;;;;65.38;55.15;;;;;;;;;;5032088;28;20067;-76
2022/02/16 09:00:59;;;;;;;70.30;54.15;;;;;;;;;;5046482;28;20049;-77
2022/02/16 09:03:25;;;;;;;66.97;50.58;;;;;;;;;;5050716;28;20027;-76
2022/02/16 09:05:51;;;;;;;57.00;45.33;;;;;;;;;;5051726;28;20021;-84
2022/02/16 09:08:18;;;;;;;44.25;38.05;;;;;;;;;;5052699;28;20032;-80
2022/02/16 09:10:44;;;;;;;46.58;37.00;;;;;;;;;;5051777;28;20053;-76
2022/02/16 09:13:10;;;;;;;48.92;38.75;;;;;;;;;;5050254;28;20104;-76
2022/02/16 09:15:37;;;;;;;48.67;39.42;;;;;;;;;;5050110;28;20111;-76
2022/02/16 09:18:05;;;;;;;51.53;37.88;;;;;;;;;;5048829;28;20104;-78
2022/02/16 09:20:31;;;;;;;42.22;34.90;;;;;;;;;;5053106;28;20024;-77
2022/02/16 09:22:57;;;;;;;40.67;32.40;;;;;;;;;;5054163;28;20013;-78
2022/02/16 09:25:23;;;;;;;35.75;30.92;;;;;;;;;;5055150;28;20017;-78
2022/02/16 09:27:49;;;;;;;37.30;31.00;;;;;;;;;;5055354;28;20081;-76
2022/02/16 09:30:16;;;;;;;28.20;24.17;;;;;;;;;;5041234;28;20017;-77
2022/02/16 09:32:42;;;;;;;27.73;23.13;;;;;;;;;;5055116;28;20048;-76
2022/02/16 09:35:08;;;;;;;32.15;25.65;;;;;;;;;;5053652;28;20020;-77
2022/02/16 09:37:34;;;;;;;34.60;29.02;;;;;;;;;;5054041;28;20017;-78
2022/02/16 09:40:00;;;;;;;29.73;24.20;;;;;;;;;;5054040;28;20032;-77
2022/02/16 09:42:27;;;;;;;29.77;24.30;;;;;;;;;;5054788;28;20472;-78
2022/02/16 09:45:01;;;;;;;22.20;17.98;;;;;;;;;;5054910;28;20017;-77
2022/02/16 09:47:29;;;;;;;17.15;15.32;;;;;;;;;;5054998;28;20017;-78
2022/02/16 09:49:55;;;;;;;19.45;15.60;;;;;;;;;;5055024;28;20010;-76
2022/02/16 09:52:22;;;;;;;29.67;21.77;;;;;;;;;;5054931;28;20410;-76
2022/02/16 09:54:48;;;;;;;23.90;17.52;;;;;;;;;;5053585;28;20021;-77
2022/02/16 09:57:15;;;;;;;23.52;19.67;;;;;;;;;;5055608;28;20075;-75
2022/02/16 09:59:41;;;;;;;24.10;20.08;;;;;;;;;;5059863;28;20044;-75
2022/02/16 10:02:12;;;;;;;26.38;23.35;;;;;;;;;;5052793;28;20031;-75
2022/02/16 10:04:40;;;;;;;27.80;23.58;;;;;;;;;;5053618;28;20357;-75
2022/02/16 10:07:23;;;;;;;27.98;24.98;;;;;;;;;;5053502;28;20498;-75
2022/02/16 10:09:49;;;;;;;31.33;23.17;;;;;;;;;;5041814;28;20100;-75
2022/02/16 10:12:15;;;;;;;28.10;22.92;;;;;;;;;;5053375;28;20103;-78
2022/02/16 10:14:41;;;;;;;26.15;21.70;;;;;;;;;;5054738;28;20488;-79
2022/02/16 10:17:26;;;;;;;35.10;26.77;;;;;;;;;;5053138;28;20131;-75
2022/02/16 10:19:57;;;;;;;33.97;26.63;;;;;;;;;;5054163;28;20068;-76
2022/02/16 10:22:28;;;;;;;39.20;28.00;;;;;;;;;;5053798;28;20428;-81
2022/02/16 10:25:08;;;;;;;33.10;29.10;;;;;;;;;;5051996;28;20025;-75
2022/02/16 10:27:34;;;;;;;34.80;29.75;;;;;;;;;;5052145;28;20045;-75
2022/02/16 10:30:09;;;;;;;33.83;29.40;;;;;;;;;;5051330;28;20028;-76
2022/02/16 10:32:35;;;;;;;35.70;31.27;;;;;;;;;;5050687;28;20029;-76
2022/02/16 10:35:01;;;;;;;57.85;45.30;;;;;;;;;;5052895;28;20013;-77
2022/02/16 10:37:38;;;;;;;47.08;38.40;;;;;;;;;;5051913;28;20021;-77
2022/02/16 10:40:06;;;;;;;50.05;39.83;;;;;;;;;;5051482;28;20506;-81
2022/02/16 10:42:33;;;;;;;72.05;51.25;;;;;;;;;;5052353;28;20494;-77
2022/02/16 10:45:07;;;;;;;94.47;68.20;;;;;;;;;;5053485;28;20017;-80
2022/02/16 10:47:33;;;;;;;;;;;;;;;;;;5053015;28;20029;-77
2022/02/16 10:49:59;;;;;;;79.88;62.13;;;;;;;;;;5087052;28;19951;-79
2022/02/16 10:52:25;;;;;;;42.22;35.53;;;;;;;;;;5050896;28;20123;-79
2022/02/16 10:54:58;;;;;;;39.40;34.53;;;;;;;;;;5053076;28;20079;-77
2022/02/16 10:57:24;;;;;;;;;;;;;;;;;;5039658;28;20030;-80
2022/02/16 10:59:51;;;;;;;45.58;38.85;;;;;;;;;;5053405;28;19924;-80
2022/02/16 11:02:21;;;;;;;42.47;36.10;;;;;;;;;;5052746;28;20033;-76
2022/02/16 11:04:47;;;;;;;52.47;41.35;;;;;;;;;;5042121;28;20036;-81
2022/02/16 11:07:18;;;;;;;84.35;59.70;;;;;;;;;;5053240;28;20021;-78
2022/02/16 11:09:48;;;;;;;86.85;59.67;;;;;;;;;;5065479;28;20063;-79
2022/02/16 11:12:14;;;;;;;131.60;87.10;;;;;;;;;;5053592;28;20064;-79
2022/02/16 11:14:41;;;;;;;63.10;51.10;;;;;;;;;;5052924;28;20040;-78
2022/02/16 11:17:09;;;;;;;40.17;34.92;;;;;;;;;;5044321;28;20021;-79
2022/02/16 11:19:36;;;;;;;32.47;28.60;;;;;;;;;;5065626;28;20068;-79
2022/02/16 11:22:09;;;;;;;34.55;30.80;;;;;;;;;;5053155;28;20017;-79
2022/02/16 11:24:43;;;;;;;37.83;31.83;;;;;;;;;;5052555;28;20025;-82
2022/02/16 11:27:29;;;;;;;40.25;33.10;;;;;;;;;;5052789;28;20475;-82
2022/02/16 11:29:59;;;;;;;38.17;32.28;;;;;;;;;;5068048;28;20021;-80
2022/02/16 11:32:29;;;;;;;29.15;25.08;;;;;;;;;;5053628;28;20040;-81
2022/02/16 11:35:16;;;;;;;37.08;30.48;;;;;;;;;;5052792;28;20021;-81
2022/02/16 11:37:43;;;;;;;34.35;27.33;;;;;;;;;;5048536;28;20022;-81
2022/02/16 11:40:10;;;;;;;31.48;25.63;;;;;;;;;;5039300;28;20032;-79
2022/02/16 11:42:48;;;;;;;34.42;22.77;;;;;;;;;;5046551;28;20460;-77
2022/02/16 11:45:16;;;;;;;24.73;21.08;;;;;;;;;;5047940;28;20035;-80
2022/02/16 11:47:42;;;;;;;25.27;21.02;;;;;;;;;;5049806;28;20399;-79
2022/02/16 11:50:12;;;;;;;23.17;19.88;;;;;;;;;;5051788;28;20503;-77
2022/02/16 11:52:51;;;;;;;24.63;20.08;;;;;;;;;;5048454;28;20037;-76
2022/02/16 11:55:22;;;;;;;27.20;23.30;;;;;;;;;;5044012;28;20021;-78
2022/02/16 11:57:51;;;;;;;24.05;21.15;;;;;;;;;;5047289;28;20017;-81
2022/02/16 12:00:20;;;;;;;21.63;17.90;;;;;;;;;;5051757;28;20049;-76
2022/02/16 12:02:59;;;;;;;32.40;24.08;;;;;;;;;;5051400;28;20017;-77
2022/02/16 12:05:52;;;;;;;22.80;17.65;;;;;;;;;;5060694;28;20025;-79
2022/02/16 12:08:19;;;;;;;23.07;17.83;;;;;;;;;;5049134;28;20526;-78
2022/02/16 12:10:53;;;;;;;21.23;18.20;;;;;;;;;;5048882;28;20297;-77
2022/02/16 12:13:28;;;;;;;22.88;18.10;;;;;;;;;;5051185;28;20017;-79
2022/02/16 12:15:58;;;;;;;32.03;20.77;;;;;;;;;;5047352;28;20032;-76
2022/02/16 12:18:25;;;;;;;24.88;19.23;;;;;;;;;;5051206;28;20031;-77
2022/02/16 12:20:51;;;;;;;19.05;16.27;;;;;;;;;;5048959;28;20112;-77
2022/02/16 12:23:17;;;;;;;20.83;18.10;;;;;;;;;;5051937;28;20033;-78
2022/02/16 12:25:43;;;;;;;20.23;17.13;;;;;;;;;;5051598;28;20565;-79
2022/02/16 12:28:09;;;;;;;22.85;19.65;;;;;;;;;;5051087;28;20472;-80
2022/02/16 12:30:37;;;;;;;21.05;17.98;;;;;;;;;;5049797;28;20387;-76
2022/02/16 12:33:03;;;;;;;24.13;20.95;;;;;;;;;;5048551;28;20031;-77
2022/02/16 12:35:30;;;;;;;27.52;23.90;;;;;;;;;;5045214;28;20031;-76
2022/02/16 12:37:56;;;;;;;17.33;14.80;;;;;;;;;;5045479;28;20048;-75
2022/02/16 12:40:25;;;;;;;22.98;18.20;;;;;;;;;;5049643;28;20442;-77
2022/02/16 12:42:51;;;;;;;16.25;14.18;;;;;;;;;;5048419;28;20074;-77
2022/02/16 12:45:22;;;;;;;24.95;16.83;;;;;;;;;;5044400;28;20036;-76
2022/02/16 12:47:50;;;;;;;20.05;15.85;;;;;;;;;;5049218;28;20029;-76
2022/02/16 12:50:17;;;;;;;22.58;16.55;;;;;;;;;;5046745;28;20025;-78
2022/02/16 12:52:43;;;;;;;16.88;13.85;;;;;;;;;;5050841;28;20071;-78
2022/02/16 12:55:09;;;;;;;17.73;13.95;;;;;;;;;;5050455;28;20032;-78
2022/02/16 12:57:37;;;;;;;25.15;18.85;;;;;;;;;;5050764;28;20025;-77
2022/02/16 13:03:01;;;;;;;24.90;18.55;;;;;;;;;;5047891;28;20036;-79
2022/02/16 13:05:41;;;;;;;17.10;15.30;;;;;;;;;;5049591;28;20086;-77
2022/02/16 13:08:07;;;;;;;23.50;20.10;;;;;;;;;;5031392;28;20270;-78
2022/02/16 13:10:36;;;;;;;22.33;19.88;;;;;;;;;;5044687;28;20025;-77
2022/02/16 13:13:14;;;;;;;26.13;19.52;;;;;;;;;;5051588;28;20031;-77
2022/02/16 13:15:43;;;;;;;26.30;19.50;;;;;;;;;;5049632;28;20035;-78
2022/02/16 13:18:09;;;;;;;22.92;17.85;;;;;;;;;;5061603;28;21118;-78
2022/02/16 13:20:36;;;;;;;17.63;15.38;;;;;;;;;;5049455;28;20346;-77
2022/02/16 13:23:16;;;;;;;15.65;13.93;;;;;;;;;;5044584;28;20021;-78
2022/02/16 13:25:44;;;;;;;43.95;33.15;;;;;;;;;;5047185;28;20033;-76
2022/02/16 13:28:16;;;;;;;34.33;24.25;;;;;;;;;;5047993;28;20120;-77
2022/02/16 13:30:42;;;;;;;20.98;17.70;;;;;;;;;;5049237;28;20021;-78
2022/02/16 13:33:15;;;;;;;20.98;16.48;;;;;;;;;;5050699;28;20059;-78
2022/02/16 13:35:43;;;;;;;17.42;12.10;;;;;;;;;;5048993;28;20403;-78
2022/02/16 13:38:10;;;;;;;17.65;13.52;;;;;;;;;;5049332;28;20025;-77
2022/02/16 13:40:48;;;;;;;15.45;11.20;;;;;;;;;;5050209;28;20045;-78
2022/02/16 13:43:14;;;;;;;17.80;12.23;;;;;;;;;;5049182;28;20021;-77
2022/02/16 13:45:41;;;;;;;26.77;15.30;;;;;;;;;;5049552;28;20009;-77
2022/02/16 13:48:08;;;;;;;18.75;15.82;;;;;;;;;;5061348;28;20018;-78
2022/02/16 13:50:37;;;;;;;29.30;19.48;;;;;;;;;;5050688;28;20052;-77
2022/02/16 13:53:03;;;;;;;14.63;11.70;;;;;;;;;;5050833;28;20025;-80
2022/02/16 13:55:43;;;;;;;19.13;10.93;;;;;;;;;;5051012;28;20013;-77
2022/02/16 13:58:09;;;;;;;20.27;13.15;;;;;;;;;;5062728;28;20021;-78
2022/02/16 14:00:35;;;;;;;38.03;23.55;;;;;;;;;;5048268;28;20488;-80
2022/02/16 14:03:06;;;;;;;15.90;12.30;;;;;;;;;;5049907;28;20040;-79
2022/02/16 14:05:32;;;;;;;18.73;16.13;;;;;;;;;;5051158;28;20063;-76
2022/02/16 14:08:01;;;;;;;22.13;14.80;;;;;;;;;;5052174;28;20968;-77
2022/02/16 14:10:27;;;;;;;19.60;14.25;;;;;;;;;;5053724;28;20486;-78
2022/02/16 14:12:53;;;;;;;36.58;21.23;;;;;;;;;;5053459;28;20130;-79
2022/02/16 14:15:19;;;;;;;37.58;20.52;;;;;;;;;;5052502;28;20028;-79
2022/02/16 14:17:46;;;;;;;32.53;18.10;;;;;;;;;;5052293;28;20024;-79
2022/02/16 14:20:12;;;;;;;20.10;14.23;;;;;;;;;;5050406;28;20029;-77
2022/02/16 14:22:39;;;;;;;26.92;15.45;;;;;;;;;;5050688;28;20032;-79